Time;durP1;ratioP1;P1;durP2;ratioP2;P2;SDS_P1;SDS_P2;PMS_P1;PMS_P2;Temp;Humidity;BMP_temperature;BMP_pressure;BME280_temperature;BME280_humidity;BME280_pressure;Samples;Min_cycle;Max_cycle;Signal;HPM_P1;HPM_P2
2022/05/26 00:01:51;;;;;;;18.65;11.27;;;13.80;99.90;;;;;;5074889;28;20051;-72
2022/05/26 00:04:17;;;;;;;21.45;12.85;;;13.80;99.90;;;;;;5075227;28;20043;-72
2022/05/26 00:06:42;;;;;;;20.67;13.50;;;13.80;99.90;;;;;;5075189;28;20041;-72
2022/05/26 00:09:08;;;;;;;24.42;13.45;;;13.80;99.90;;;;;;5075101;28;20039;-72
2022/05/26 00:11:36;;;;;;;19.67;12.50;;;13.80;99.90;;;;;;5073418;28;20036;-72
2022/05/26 00:14:07;;;;;;;18.88;11.60;;;13.80;99.90;;;;;;5075205;28;20044;-72
2022/05/26 00:16:38;;;;;;;21.38;12.00;;;13.80;99.90;;;;;;5075137;28;20094;-72
2022/05/26 00:19:04;;;;;;;23.83;12.30;;;13.80;99.90;;;;;;5073652;28;20048;-71
2022/05/26 00:21:30;;;;;;;23.45;12.32;;;13.80;99.90;;;;;;5074536;28;20036;-72
2022/05/26 00:23:56;;;;;;;21.00;12.43;;;13.80;99.90;;;;;;5073464;28;20561;-72
2022/05/26 00:26:23;;;;;;;18.58;11.80;;;13.80;99.90;;;;;;5075021;28;20041;-71
2022/05/26 00:28:48;;;;;;;22.10;11.65;;;13.80;99.90;;;;;;5074933;28;20040;-71
2022/05/26 00:31:14;;;;;;;21.33;11.93;;;13.80;99.90;;;;;;5074459;28;20516;-72
2022/05/26 00:33:39;;;;;;;21.10;12.38;;;13.80;99.90;;;;;;5074720;28;20047;-72
2022/05/26 00:36:07;;;;;;;19.92;12.05;;;13.80;99.90;;;;;;5073502;28;20051;-72
2022/05/26 00:38:36;;;;;;;19.35;12.05;;;13.80;99.90;;;;;;5074618;28;20516;-72
2022/05/26 00:41:11;;;;;;;25.13;11.63;;;13.80;99.90;;;;;;5072636;28;20053;-72
2022/05/26 00:43:44;;;;;;;23.55;11.70;;;13.80;99.90;;;;;;5073014;28;20078;-72
2022/05/26 00:46:21;;;;;;;23.65;11.38;;;13.80;99.90;;;;;;5074541;28;20115;-72
2022/05/26 00:48:52;;;;;;;25.67;12.32;;;13.80;99.90;;;;;;5073421;28;20036;-72
2022/05/26 00:51:23;;;;;;;19.77;12.05;;;13.80;99.90;;;;;;5072728;28;20044;-72
2022/05/26 00:53:55;;;;;;;31.65;12.75;;;13.80;99.90;;;;;;5074555;28;20460;-72
2022/05/26 00:56:34;;;;;;;25.33;11.35;;;13.80;99.90;;;;;;5073297;28;20048;-72
2022/05/26 00:59:10;;;;;;;27.35;11.00;;;13.70;99.90;;;;;;5073117;28;20047;-72
2022/05/26 01:01:36;;;;;;;33.15;12.85;;;13.70;99.90;;;;;;5072779;28;20494;-72
2022/05/26 01:04:10;;;;;;;30.65;11.38;;;13.70;99.90;;;;;;5072777;28;20127;-72
2022/05/26 01:06:51;;;;;;;37.65;12.20;;;13.70;99.90;;;;;;5073307;28;20086;-72
2022/05/26 01:09:16;;;;;;;35.28;12.02;;;13.70;99.90;;;;;;5073963;28;20513;-72
2022/05/26 01:11:44;;;;;;;31.85;12.27;;;13.70;99.90;;;;;;5073600;28;20036;-72
2022/05/26 01:14:12;;;;;;;33.92;11.65;;;13.70;99.90;;;;;;5074118;28;20039;-72
2022/05/26 01:16:50;;;;;;;40.03;12.98;;;13.80;99.90;;;;;;5074069;28;20086;-72
2022/05/26 01:19:39;;;;;;;35.65;12.15;;;13.80;99.90;;;;;;5073879;28;20037;-72
2022/05/26 01:22:32;;;;;;;36.45;12.80;;;13.80;99.90;;;;;;5073600;28;20040;-72
2022/05/26 01:25:27;;;;;;;43.30;13.15;;;13.80;99.90;;;;;;5073863;28;20044;-73
2022/05/26 01:28:11;;;;;;;34.17;12.70;;;13.80;99.90;;;;;;5073734;28;20057;-72
2022/05/26 01:30:50;;;;;;;36.33;12.77;;;13.90;99.90;;;;;;5073252;28;20044;-72
2022/05/26 01:33:48;;;;;;;35.00;12.80;;;13.90;99.90;;;;;;5073801;28;20072;-72
2022/05/26 01:36:26;;;;;;;30.08;13.50;;;13.90;99.90;;;;;;5062501;28;20052;-71
2022/05/26 01:39:22;;;;;;;39.22;12.52;;;13.90;99.90;;;;;;5072052;28;20044;-71
2022/05/26 01:42:07;;;;;;;34.42;12.40;;;13.90;99.90;;;;;;5073298;28;20040;-72
2022/05/26 01:44:35;;;;;;;33.92;12.13;;;13.80;99.90;;;;;;5073321;28;20075;-72
2022/05/26 01:47:08;;;;;;;37.35;12.88;;;13.90;99.90;;;;;;5073283;28;20072;-72
2022/05/26 01:49:42;;;;;;;29.77;10.57;;;13.90;99.90;;;;;;5073162;28;20082;-72
2022/05/26 01:52:32;;;;;;;24.15;10.75;;;13.90;99.90;;;;;;5073073;28;20051;-72
2022/05/26 01:55:17;;;;;;;27.65;11.50;;;13.80;99.90;;;;;;5073218;28;20051;-72
2022/05/26 01:57:58;;;;;;;30.52;9.55;;;13.80;99.90;;;;;;5073052;28;20045;-72
2022/05/26 02:00:24;;;;;;;30.40;10.30;;;13.80;99.90;;;;;;5072836;28;20036;-72
2022/05/26 02:03:02;;;;;;;31.58;10.40;;;13.80;99.90;;;;;;5073086;28;20044;-72
2022/05/26 02:05:33;;;;;;;39.10;11.25;;;13.90;99.90;;;;;;5073002;28;20040;-72
2022/05/26 02:08:04;;;;;;;21.38;9.23;;;13.90;99.90;;;;;;5072862;28;20040;-72
2022/05/26 02:10:39;;;;;;;27.05;11.98;;;13.80;99.90;;;;;;5072687;28;20033;-72
2022/05/26 02:13:18;;;;;;;33.42;11.30;;;13.80;99.90;;;;;;5072917;28;20045;-72
2022/05/26 02:15:48;;;;;;;38.75;12.52;;;13.90;99.90;;;;;;5072888;28;20082;-72
2022/05/26 02:18:26;;;;;;;34.30;10.95;;;13.90;99.90;;;;;;5071491;28;20112;-72
2022/05/26 02:20:58;;;;;;;28.55;12.10;;;13.90;99.90;;;;;;5072272;28;20123;-72
2022/05/26 02:23:40;;;;;;;34.25;12.48;;;13.90;99.90;;;;;;5072691;28;20041;-72
2022/05/26 02:26:07;;;;;;;27.02;12.02;;;13.80;99.90;;;;;;5072564;28;20511;-72
2022/05/26 02:29:51;;;;;;;37.63;12.23;;;13.80;99.90;;;;;;5072495;28;20051;-72
2022/05/26 02:31:22;;;;;;;36.13;12.15;;;13.80;99.90;;;;;;5071971;28;20066;-72
2022/05/26 02:33:51;;;;;;;37.13;13.10;;;13.80;99.90;;;;;;5072509;28;20051;-72
2022/05/26 02:36:17;;;;;;;34.97;12.27;;;13.80;99.90;;;;;;5072386;28;20071;-72
2022/05/26 02:38:42;;;;;;;39.65;10.00;;;13.80;99.90;;;;;;5072376;28;20383;-72
2022/05/26 02:41:08;;;;;;;40.30;12.43;;;13.90;99.90;;;;;;5071761;28;20044;-72
2022/05/26 02:43:34;;;;;;;36.65;11.73;;;13.80;99.90;;;;;;5072075;28;20040;-71
2022/05/26 02:46:24;;;;;;;28.65;10.38;;;13.90;99.90;;;;;;5072371;28;20033;-71
2022/05/26 02:49:04;;;;;;;38.67;11.23;;;13.90;99.90;;;;;;5072080;28;20454;-72
2022/05/26 02:51:50;;;;;;;40.20;10.73;;;13.90;99.90;;;;;;5071770;28;20123;-72
2022/05/26 02:54:28;;;;;;;38.72;10.75;;;13.80;99.90;;;;;;5071043;28;20393;-71
2022/05/26 02:57:18;;;;;;;21.23;8.48;;;13.80;99.90;;;;;;5072269;28;20040;-72
2022/05/26 03:00:02;;;;;;;34.83;10.27;;;13.80;99.90;;;;;;5071970;28;20040;-72
2022/05/26 03:02:52;;;;;;;27.10;10.07;;;13.80;99.90;;;;;;5071853;28;20096;-72
2022/05/26 03:05:40;;;;;;;30.35;9.35;;;13.80;99.90;;;;;;5070560;28;20128;-71
2022/05/26 03:08:08;;;;;;;31.40;9.50;;;13.70;99.90;;;;;;5070901;28;20538;-71
2022/05/26 03:10:37;;;;;;;28.92;8.23;;;13.70;99.90;;;;;;5070372;28;20044;-71
2022/05/26 03:13:03;;;;;;;28.92;8.70;;;13.70;99.90;;;;;;5070787;28;20135;-71
2022/05/26 03:15:31;;;;;;;35.33;9.32;;;13.70;99.90;;;;;;5070648;28;20534;-72
2022/05/26 03:18:01;;;;;;;25.80;7.97;;;13.70;99.90;;;;;;5070337;28;20066;-71
2022/05/26 03:20:27;;;;;;;33.17;8.05;;;13.70;99.90;;;;;;5071393;28;20090;-71
2022/05/26 03:22:53;;;;;;;34.92;9.32;;;13.70;99.90;;;;;;5070540;28;20094;-71
2022/05/26 03:25:18;;;;;;;38.03;8.95;;;13.60;99.90;;;;;;5070280;28;20044;-71
2022/05/26 03:27:44;;;;;;;32.30;8.73;;;13.60;99.90;;;;;;5071855;28;20047;-71
2022/05/26 03:30:10;;;;;;;29.63;8.20;;;13.60;99.90;;;;;;5074620;28;20085;-71
2022/05/26 03:32:35;;;;;;;27.05;7.57;;;13.60;99.90;;;;;;5078023;28;20380;-71
2022/05/26 03:43:16;;;;;;;31.58;8.35;;;13.60;99.90;;;;;;5078233;28;20075;-72
2022/05/26 03:45:42;;;;;;;28.42;8.90;;;13.50;99.90;;;;;;5078193;28;20079;-72
2022/05/26 03:48:09;;;;;;;35.85;10.43;;;13.50;99.90;;;;;;5078018;28;20432;-72
2022/05/26 03:50:35;;;;;;;34.20;9.00;;;13.60;99.90;;;;;;5077985;28;20037;-72
2022/05/26 03:53:00;;;;;;;25.33;7.28;;;13.50;99.90;;;;;;5078261;28;20083;-72
2022/05/26 03:55:26;;;;;;;29.30;7.30;;;13.50;99.90;;;;;;5078165;28;20032;-72
2022/05/26 03:57:52;;;;;;;27.30;6.85;;;13.50;99.90;;;;;;5078034;28;20468;-71
2022/05/26 04:00:21;;;;;;;21.02;6.15;;;13.50;99.90;;;;;;5077541;28;20033;-71
2022/05/26 04:02:47;;;;;;;25.75;6.63;;;13.40;99.90;;;;;;5077917;28;20128;-71
2022/05/26 04:05:13;;;;;;;18.90;6.53;;;13.40;99.90;;;;;;5076693;28;20234;-72
2022/05/26 04:07:39;;;;;;;17.05;6.90;;;13.50;99.90;;;;;;5078178;28;20132;-71
2022/05/26 04:10:07;;;;;;;21.02;6.43;;;13.40;99.90;;;;;;5077801;28;20583;-71
2022/05/26 04:12:32;;;;;;;24.80;5.18;;;13.40;99.90;;;;;;5077904;28;20043;-72
2022/05/26 04:14:58;;;;;;;15.82;4.85;;;13.40;99.90;;;;;;5077908;28;20123;-72
2022/05/26 04:17:24;;;;;;;19.63;5.32;;;13.40;99.90;;;;;;5077828;28;20040;-71
2022/05/26 04:19:49;;;;;;;15.25;4.47;;;13.40;99.90;;;;;;5076511;28;20040;-71
2022/05/26 04:22:15;;;;;;;21.15;5.15;;;13.40;99.90;;;;;;5077776;28;20044;-71
2022/05/26 04:24:41;;;;;;;14.90;5.05;;;13.40;99.90;;;;;;5077786;28;20036;-71
2022/05/26 04:27:08;;;;;;;16.42;4.10;;;13.40;99.90;;;;;;5077835;28;20047;-72
2022/05/26 04:29:35;;;;;;;14.52;4.15;;;13.40;99.90;;;;;;5076510;28;20048;-71
2022/05/26 04:32:01;;;;;;;16.17;5.10;;;13.40;99.90;;;;;;5076145;28;20487;-71
2022/05/26 04:34:27;;;;;;;14.77;4.22;;;13.50;99.90;;;;;;5077967;28;20033;-72
2022/05/26 04:36:53;;;;;;;13.82;3.45;;;13.50;99.90;;;;;;5077888;28;20414;-71
2022/05/26 04:39:19;;;;;;;18.40;4.10;;;13.50;99.90;;;;;;5076225;28;20056;-71
2022/05/26 04:41:45;;;;;;;11.57;3.25;;;13.40;99.90;;;;;;5074440;28;20045;-71
2022/05/26 04:44:13;;;;;;;12.70;3.10;;;13.50;99.90;;;;;;5073213;28;20044;-71
2022/05/26 04:46:39;;;;;;;13.13;3.08;;;13.50;99.90;;;;;;5073411;28;20452;-71
2022/05/26 04:49:06;;;;;;;11.50;2.83;;;13.50;99.90;;;;;;5074606;28;20036;-71
2022/05/26 04:51:34;;;;;;;10.30;2.67;;;13.70;99.90;;;;;;5074141;28;20469;-71
2022/05/26 04:54:00;;;;;;;8.90;2.85;;;13.80;99.90;;;;;;5073252;28;20047;-71
2022/05/26 04:56:26;;;;;;;9.20;2.30;;;13.90;99.90;;;;;;5073067;28;20048;-71
2022/05/26 04:58:52;;;;;;;13.07;2.58;;;14.00;99.90;;;;;;5074295;28;20109;-71
2022/05/26 05:01:20;;;;;;;9.43;1.88;;;14.30;99.90;;;;;;5073950;28;20582;-71
2022/05/26 05:03:46;;;;;;;9.93;2.90;;;14.50;99.90;;;;;;5074257;28;20116;-72
2022/05/26 05:06:13;;;;;;;9.88;2.22;;;14.60;99.90;;;;;;5074257;28;20029;-71
2022/05/26 05:08:39;;;;;;;6.63;2.25;;;14.80;99.90;;;;;;5074014;28;20402;-71
2022/05/26 05:11:05;;;;;;;8.63;2.63;;;14.90;99.90;;;;;;5073707;28;20045;-72
2022/05/26 05:13:32;;;;;;;5.50;1.48;;;15.00;99.90;;;;;;5073940;28;20040;-72
2022/05/26 05:16:04;;;;;;;6.05;2.22;;;15.20;99.90;;;;;;5074070;28;20041;-71
2022/05/26 05:18:32;;;;;;;12.65;2.63;;;15.30;99.90;;;;;;5074080;28;20516;-72
2022/05/26 05:21:04;;;;;;;6.07;1.80;;;15.40;99.90;;;;;;5073481;28;20506;-72
2022/05/26 05:23:30;;;;;;;6.50;1.70;;;15.60;99.90;;;;;;5072510;28;20044;-71
2022/05/26 05:25:58;;;;;;;8.20;1.80;;;15.60;99.90;;;;;;5072699;28;20048;-71
2022/05/26 05:28:30;;;;;;;7.07;1.63;;;15.60;99.90;;;;;;5072339;28;20050;-71
2022/05/26 05:30:57;;;;;;;6.80;1.60;;;15.70;99.90;;;;;;5073280;28;20051;-72
2022/05/26 05:33:33;;;;;;;10.93;2.25;;;15.80;99.90;;;;;;5073729;28;20055;-72
2022/05/26 05:36:08;;;;;;;7.22;1.50;;;15.90;99.90;;;;;;5073641;28;20040;-72
2022/05/26 05:38:38;;;;;;;7.95;1.83;;;16.00;99.90;;;;;;5073438;28;20090;-72
2022/05/26 05:41:04;;;;;;;7.47;1.73;;;16.00;99.90;;;;;;5073056;28;20044;-72
2022/05/26 05:43:31;;;;;;;7.40;2.28;;;16.20;99.90;;;;;;5073272;28;20486;-71
2022/05/26 05:45:57;;;;;;;6.22;2.22;;;16.20;99.90;;;;;;5073289;28;20506;-72
2022/05/26 05:48:23;;;;;;;4.88;1.67;;;16.30;99.90;;;;;;5073313;28;20036;-72
2022/05/26 05:50:48;;;;;;;10.40;1.50;;;16.40;99.90;;;;;;5072995;28;20072;-72
2022/05/26 05:53:18;;;;;;;5.53;1.23;;;16.50;99.90;;;;;;5072758;28;20079;-72
2022/05/26 05:55:43;;;;;;;8.27;1.38;;;16.50;99.90;;;;;;5073345;28;20029;-72
2022/05/26 05:58:10;;;;;;;5.63;1.30;;;16.60;99.90;;;;;;5073240;28;20709;-72
2022/05/26 06:00:36;;;;;;;11.38;1.63;;;16.70;99.90;;;;;;5071371;28;20040;-71
2022/05/26 06:03:03;;;;;;;4.75;1.35;;;16.70;99.90;;;;;;5073020;28;20036;-72
2022/05/26 06:05:28;;;;;;;7.82;1.50;;;16.60;99.90;;;;;;5072957;28;20041;-72
2022/05/26 06:07:54;;;;;;;5.30;0.98;;;16.80;99.90;;;;;;5071808;28;20496;-72
2022/05/26 06:10:20;;;;;;;9.35;1.38;;;16.80;99.90;;;;;;5072636;28;20041;-72
2022/05/26 06:12:46;;;;;;;7.43;1.52;;;16.80;99.90;;;;;;5071528;28;20044;-72
2022/05/26 06:15:12;;;;;;;7.53;1.35;;;16.90;99.90;;;;;;5072849;28;20383;-72
2022/05/26 06:17:38;;;;;;;5.68;1.75;;;17.10;99.90;;;;;;5071456;28;20489;-72
2022/05/26 06:20:05;;;;;;;7.80;1.40;;;17.20;99.90;;;;;;5072310;28;20068;-72
2022/05/26 06:22:32;;;;;;;8.13;1.70;;;17.30;99.90;;;;;;5072542;28;20041;-72
2022/05/26 06:24:58;;;;;;;4.40;1.40;;;17.50;99.90;;;;;;5072658;28;20052;-72
2022/05/26 06:30:11;;;;;;;5.63;1.40;;;17.80;99.90;;;;;;5070829;28;20044;-72
2022/05/26 06:38:17;;;;;;;3.78;1.45;;;17.90;99.90;;;;;;5072315;28;20135;-72
2022/05/26 06:40:43;;;;;;;13.15;3.28;;;17.90;99.90;;;;;;5070482;28;20085;-72
2022/05/26 06:43:08;;;;;;;4.68;1.10;;;17.80;99.90;;;;;;5072078;28;20417;-72
2022/05/26 06:45:36;;;;;;;5.43;1.20;;;17.70;99.90;;;;;;5072408;28;20040;-72
2022/05/26 06:48:01;;;;;;;5.13;1.42;;;17.40;99.90;;;;;;5072100;28;20422;-72
2022/05/26 06:50:27;;;;;;;7.10;1.40;;;17.40;99.90;;;;;;5071887;28;20040;-72
2022/05/26 06:52:53;;;;;;;3.72;1.02;;;17.50;99.90;;;;;;5072067;28;20032;-72
2022/05/26 06:55:18;;;;;;;4.60;1.48;;;17.60;99.90;;;;;;5072133;28;20453;-72
2022/05/26 06:57:44;;;;;;;5.53;1.58;;;17.70;99.90;;;;;;5071871;28;20040;-72
2022/05/26 07:00:12;;;;;;;7.68;1.27;;;17.60;99.90;;;;;;5071819;28;20445;-72
2022/05/26 07:02:38;;;;;;;4.82;1.20;;;17.80;99.90;;;;;;5072104;28;20040;-72
2022/05/26 07:05:05;;;;;;;5.53;1.25;;;18.10;99.90;;;;;;5071302;28;20043;-72
2022/05/26 07:07:32;;;;;;;4.95;0.93;;;17.80;99.90;;;;;;5071876;28;20555;-72
2022/05/26 07:09:58;;;;;;;6.93;1.30;;;17.30;99.90;;;;;;5071564;28;20450;-72
2022/05/26 07:12:24;;;;;;;7.47;1.38;;;17.00;99.90;;;;;;5071735;28;20066;-72
2022/05/26 07:14:51;;;;;;;8.43;1.63;;;16.90;99.90;;;;;;5072249;28;20048;-72
2022/05/26 07:17:18;;;;;;;5.90;1.40;;;16.60;99.90;;;;;;5072004;28;20051;-72
2022/05/26 07:19:43;;;;;;;5.10;1.00;;;16.30;99.90;;;;;;5071783;28;20123;-72
2022/05/26 07:22:09;;;;;;;5.85;1.40;;;16.20;99.90;;;;;;5071521;28;20086;-72
2022/05/26 07:24:35;;;;;;;4.10;1.33;;;16.10;99.90;;;;;;5071600;28;20036;-72
2022/05/26 07:27:01;;;;;;;6.45;1.08;;;16.10;99.90;;;;;;5071560;28;20036;-72
2022/05/26 07:29:27;;;;;;;2.80;0.80;;;16.10;99.90;;;;;;5070585;28;20079;-72
2022/05/26 07:31:54;;;;;;;4.22;1.58;;;16.10;99.90;;;;;;5071547;28;20410;-72
2022/05/26 07:34:20;;;;;;;7.13;1.20;;;16.20;99.90;;;;;;5071583;28;20513;-72
2022/05/26 07:42:18;;;;;;;3.60;1.02;;;16.30;99.90;;;;;;5071464;28;20076;-72
2022/05/26 07:44:45;;;;;;;4.35;1.27;;;16.40;99.90;;;;;;5071558;28;20047;-72
2022/05/26 07:47:12;;;;;;;7.70;1.58;;;16.30;99.90;;;;;;5071614;28;20037;-72
2022/05/26 07:49:44;;;;;;;4.15;1.20;;;16.30;99.90;;;;;;5070099;28;20043;-71
2022/05/26 07:52:10;;;;;;;5.32;1.15;;;16.20;99.90;;;;;;5071457;28;20033;-72
2022/05/26 07:54:36;;;;;;;4.03;1.23;;;16.20;99.90;;;;;;5070213;28;20555;-72
2022/05/26 07:57:03;;;;;;;7.38;1.35;;;16.30;99.90;;;;;;5071532;28;20412;-72
2022/05/26 07:59:29;;;;;;;6.57;1.40;;;16.40;99.90;;;;;;5070066;28;20048;-71
2022/05/26 08:01:55;;;;;;;6.25;1.15;;;16.40;99.90;;;;;;5070083;28;20455;-70
2022/05/26 08:04:20;;;;;;;5.88;1.00;;;16.40;99.90;;;;;;5070858;28;20086;-70
2022/05/26 08:06:47;;;;;;;8.10;1.63;;;16.40;99.90;;;;;;5050154;28;20521;-70
2022/05/26 08:09:15;;;;;;;4.63;1.08;;;16.30;99.90;;;;;;5070987;28;20040;-70
2022/05/26 08:11:41;;;;;;;3.40;1.20;;;16.40;99.90;;;;;;5070663;28;20068;-70
2022/05/26 08:14:06;;;;;;;6.15;1.27;;;16.50;99.90;;;;;;5068215;28;20117;-70
2022/05/26 08:16:32;;;;;;;7.20;1.17;;;16.40;99.90;;;;;;5072809;28;20033;-70
2022/05/26 08:18:58;;;;;;;5.60;1.10;;;16.60;99.90;;;;;;5074494;28;20039;-70
2022/05/26 08:21:23;;;;;;;3.25;0.90;;;16.70;99.90;;;;;;5074027;28;20509;-70
2022/05/26 08:23:49;;;;;;;5.75;1.30;;;17.00;99.90;;;;;;5074846;28;20040;-69
2022/05/26 08:26:15;;;;;;;8.45;1.60;;;17.00;99.90;;;;;;5074936;28;20123;-70
2022/05/26 08:28:42;;;;;;;5.07;1.20;;;17.00;99.90;;;;;;5073726;28;20062;-70
2022/05/26 08:31:10;;;;;;;3.83;1.33;;;17.20;99.90;;;;;;5073399;28;20032;-70
2022/05/26 08:33:36;;;;;;;3.28;0.90;;;17.20;99.90;;;;;;5074672;28;20048;-70
2022/05/26 08:36:14;;;;;;;4.20;0.82;;;17.20;99.90;;;;;;5074688;28;20048;-70
2022/05/26 08:38:40;;;;;;;4.80;1.00;;;17.40;99.90;;;;;;5073379;28;20490;-70
2022/05/26 08:41:07;;;;;;;4.63;1.02;;;17.50;99.90;;;;;;5074121;28;20164;-70
2022/05/26 08:43:40;;;;;;;6.65;1.00;;;17.40;99.90;;;;;;5072088;28;20044;-71
2022/05/26 08:46:09;;;;;;;4.95;0.90;;;17.50;99.90;;;;;;5072885;28;20033;-70
2022/05/26 08:48:48;;;;;;;5.07;0.75;;;17.50;99.90;;;;;;5071275;28;20036;-70
2022/05/26 08:51:22;;;;;;;3.85;1.08;;;17.40;99.90;;;;;;5073777;28;20116;-70
2022/05/26 08:53:51;;;;;;;2.55;1.05;;;17.40;99.90;;;;;;5074220;28;20042;-70
2022/05/26 08:56:21;;;;;;;4.60;1.40;;;17.60;99.90;;;;;;5073868;28;20394;-70
2022/05/26 08:58:47;;;;;;;4.85;1.13;;;18.10;99.90;;;;;;5070112;28;20048;-70
2022/05/26 09:01:19;;;;;;;9.15;1.55;;;18.50;99.90;;;;;;5074074;28;20047;-70
2022/05/26 09:03:45;;;;;;;3.28;1.05;;;19.00;98.30;;;;;;5072870;28;20045;-70
2022/05/26 09:06:14;;;;;;;3.97;0.88;;;19.10;96.30;;;;;;5074188;28;20051;-70
2022/05/26 09:14:27;;;;;;;6.72;1.48;;;19.50;95.00;;;;;;5074102;28;20494;-71
2022/05/26 09:17:05;;;;;;;6.45;0.80;;;19.60;94.40;;;;;;5072875;28;20098;-69
2022/05/26 09:19:42;;;;;;;7.55;1.02;;;19.60;94.20;;;;;;5072423;28;20040;-70
2022/05/26 09:22:39;;;;;;;5.35;0.90;;;19.80;93.70;;;;;;5073801;28;20036;-70
2022/05/26 09:25:11;;;;;;;5.03;0.98;;;19.80;92.30;;;;;;5073703;28;20080;-70
2022/05/26 09:27:37;;;;;;;4.18;1.15;;;19.90;91.10;;;;;;5071713;28;20090;-70
2022/05/26 09:30:26;;;;;;;7.00;1.20;;;19.80;90.10;;;;;;5073245;28;20510;-71
2022/05/26 09:32:53;;;;;;;5.32;0.85;;;19.80;88.40;;;;;;5073768;28;20063;-71
2022/05/26 09:35:19;;;;;;;10.48;1.10;;;19.70;89.90;;;;;;5073667;28;20115;-70
2022/05/26 09:37:47;;;;;;;3.10;0.65;;;19.60;90.20;;;;;;5073537;28;20123;-70
2022/05/26 09:40:20;;;;;;;5.05;0.90;;;19.40;90.80;;;;;;5072821;28;20558;-70
2022/05/26 09:42:51;;;;;;;4.63;0.80;;;19.00;90.70;;;;;;5073560;28;20486;-69
2022/05/26 09:45:19;;;;;;;6.20;1.13;;;19.20;90.60;;;;;;5073464;28;20048;-69
2022/05/26 09:47:53;;;;;;;3.70;0.70;;;19.60;91.30;;;;;;5073516;28;20032;-71
2022/05/26 09:50:34;;;;;;;4.32;0.90;;;19.70;88.70;;;;;;5072983;28;20032;-71
2022/05/26 09:53:00;;;;;;;3.60;0.80;;;19.80;83.50;;;;;;5073387;28;20070;-71
2022/05/26 09:55:49;;;;;;;4.15;0.75;;;20.00;85.00;;;;;;5073306;28;20079;-71
2022/05/26 09:58:42;;;;;;;2.45;0.80;;;20.00;81.80;;;;;;5073239;28;20526;-71
2022/05/26 10:01:29;;;;;;;2.67;0.75;;;19.90;79.20;;;;;;5071455;28;20040;-70
2022/05/26 10:04:27;;;;;;;3.08;1.00;;;19.80;81.40;;;;;;5073159;28;20524;-70
2022/05/26 10:07:01;;;;;;;2.65;0.60;;;19.70;82.00;;;;;;5072993;28;20040;-71
2022/05/26 10:09:27;;;;;;;1.67;0.52;;;19.70;80.70;;;;;;5071822;28;20182;-71
2022/05/26 10:12:24;;;;;;;1.95;0.57;;;19.60;80.00;;;;;;5072651;28;20064;-71
2022/05/26 10:14:56;;;;;;;1.30;0.70;;;19.60;82.20;;;;;;5071752;28;20174;-71
2022/05/26 10:17:31;;;;;;;1.80;0.50;;;19.70;81.30;;;;;;5072649;28;20070;-71
2022/05/26 10:20:00;;;;;;;4.03;1.15;;;19.80;81.90;;;;;;5072278;28;20044;-71
2022/05/26 10:22:47;;;;;;;5.75;0.90;;;19.50;81.40;;;;;;5072700;28;20041;-69
2022/05/26 10:25:28;;;;;;;3.92;0.98;;;19.70;81.00;;;;;;5071623;28;20045;-69
2022/05/26 10:28:23;;;;;;;3.63;0.70;;;19.40;80.90;;;;;;5072017;28;20040;-68
2022/05/26 10:31:03;;;;;;;10.10;0.90;;;19.00;82.50;;;;;;5070959;28;20044;-68
2022/05/26 10:33:47;;;;;;;3.30;0.80;;;18.70;83.20;;;;;;5070634;28;20111;-68
2022/05/26 10:36:23;;;;;;;3.00;1.02;;;18.50;85.40;;;;;;5071831;28;20071;-70
2022/05/26 10:39:10;;;;;;;6.28;1.02;;;18.20;87.30;;;;;;5070992;28;20068;-69
2022/05/26 10:41:57;;;;;;;3.47;0.70;;;18.00;88.10;;;;;;5068616;28;20036;-68
2022/05/26 10:44:38;;;;;;;5.00;0.70;;;18.00;88.00;;;;;;5070204;28;20048;-69
2022/05/26 10:47:17;;;;;;;3.00;0.90;;;18.20;88.30;;;;;;5068975;28;20037;-69
2022/05/26 10:50:18;;;;;;;4.32;0.90;;;18.10;90.10;;;;;;5070383;28;20108;-69
2022/05/26 10:52:50;;;;;;;6.50;1.70;;;17.90;90.00;;;;;;5038233;28;20044;-69
2022/05/26 10:55:25;;;;;;;3.08;1.08;;;17.90;91.00;;;;;;5069030;28;20166;-69
2022/05/26 10:58:16;;;;;;;5.22;0.70;;;17.80;91.00;;;;;;5072081;28;20494;-69
2022/05/26 11:00:50;;;;;;;4.85;0.90;;;17.80;91.50;;;;;;5070481;28;20044;-69
2022/05/26 11:03:36;;;;;;;4.18;0.70;;;17.90;92.30;;;;;;5070602;28;20055;-68
2022/05/26 11:06:24;;;;;;;4.43;0.80;;;18.20;92.40;;;;;;5071010;28;20037;-70
2022/05/26 11:09:07;;;;;;;2.72;0.93;;;18.20;92.50;;;;;;5071921;28;20086;-69
2022/05/26 11:11:33;;;;;;;2.42;0.95;;;18.30;92.40;;;;;;5071773;28;20036;-69
2022/05/26 11:17:22;;;;;;;4.20;0.80;;;18.50;93.70;;;;;;5071986;28;20052;-69
2022/05/26 11:19:58;;;;;;;5.57;1.75;;;18.70;94.20;;;;;;5071809;28;20051;-69
2022/05/26 11:22:24;;;;;;;3.20;0.90;;;18.70;94.20;;;;;;5071642;28;20029;-69
2022/05/26 11:24:52;;;;;;;4.38;1.00;;;18.70;93.80;;;;;;5071245;28;20036;-69
2022/05/26 11:27:26;;;;;;;6.20;1.27;;;18.80;92.40;;;;;;5071679;28;20043;-70
2022/05/26 11:36:07;;;;;;;6.50;1.38;;;18.80;92.90;;;;;;5071557;28;20119;-70
2022/05/26 11:38:35;;;;;;;7.72;1.13;;;18.60;92.90;;;;;;5070363;28;20053;-69
2022/05/26 11:41:01;;;;;;;4.60;1.02;;;18.80;93.70;;;;;;5069512;28;20083;-69
2022/05/26 11:43:39;;;;;;;5.53;0.70;;;18.70;93.00;;;;;;5070988;28;20052;-69
2022/05/26 11:46:09;;;;;;;2.97;0.90;;;18.60;91.20;;;;;;5071059;28;20055;-69
2022/05/26 11:48:42;;;;;;;3.60;0.82;;;18.50;91.60;;;;;;5068356;28;20075;-69
2022/05/26 11:51:31;;;;;;;4.55;1.08;;;18.40;91.40;;;;;;5072027;28;20028;-69
2022/05/26 11:53:59;;;;;;;3.15;0.52;;;18.40;91.30;;;;;;5072978;28;20052;-69
2022/05/26 11:56:28;;;;;;;4.70;1.05;;;18.50;92.20;;;;;;5074626;28;20040;-69
2022/05/26 11:59:23;;;;;;;8.93;2.10;;;18.70;93.00;;;;;;5073634;28;20054;-69
2022/05/26 12:02:07;;;;;;;6.18;0.98;;;18.70;94.20;;;;;;5074531;28;20046;-69
2022/05/26 12:04:42;;;;;;;6.97;1.00;;;18.70;93.70;;;;;;5074861;28;20040;-69
2022/05/26 12:07:23;;;;;;;7.55;1.13;;;18.60;92.60;;;;;;5070262;28;20036;-69
2022/05/26 12:09:54;;;;;;;6.05;1.30;;;18.50;94.40;;;;;;5070207;28;20167;-69
2022/05/26 12:12:23;;;;;;;6.15;1.42;;;18.40;95.50;;;;;;5073294;28;20047;-69
2022/05/26 12:14:55;;;;;;;6.53;1.08;;;18.20;96.00;;;;;;5072753;28;20040;-70
2022/05/26 12:17:41;;;;;;;3.20;0.80;;;18.30;95.70;;;;;;5074357;28;20045;-69
2022/05/26 12:20:12;;;;;;;6.57;0.98;;;18.70;93.60;;;;;;5072338;28;20097;-69
2022/05/26 12:22:51;;;;;;;6.65;1.15;;;19.10;93.40;;;;;;5073340;28;20055;-70
2022/05/26 12:25:33;;;;;;;3.72;0.90;;;19.10;92.50;;;;;;5075001;28;20090;-70
2022/05/26 12:28:14;;;;;;;2.65;0.75;;;18.80;92.10;;;;;;5075000;28;20044;-69
2022/05/26 12:30:46;;;;;;;6.82;1.33;;;18.60;92.40;;;;;;5073461;28;20128;-69
2022/05/26 12:33:20;;;;;;;4.68;1.10;;;18.40;92.70;;;;;;5074703;28;20044;-69
2022/05/26 12:36:04;;;;;;;4.72;1.10;;;18.40;93.60;;;;;;5074589;28;20521;-69
2022/05/26 12:38:45;;;;;;;3.30;1.00;;;18.40;94.20;;;;;;5074701;28;20078;-69
2022/05/26 12:41:26;;;;;;;4.88;1.50;;;18.60;95.10;;;;;;5070653;28;20032;-69
2022/05/26 12:44:05;;;;;;;5.55;1.00;;;18.70;95.60;;;;;;5071756;28;20044;-69
2022/05/26 12:46:52;;;;;;;5.60;1.20;;;18.60;95.70;;;;;;5073833;28;20110;-69
2022/05/26 12:49:32;;;;;;;4.70;1.20;;;18.40;95.30;;;;;;5073980;28;20044;-70
2022/05/26 12:52:15;;;;;;;7.28;1.38;;;18.50;95.90;;;;;;5074135;28;20036;-70
2022/05/26 12:55:01;;;;;;;5.00;1.13;;;18.50;96.80;;;;;;5070241;28;20049;-70
2022/05/26 12:57:31;;;;;;;4.80;1.13;;;18.30;95.90;;;;;;5073556;28;20032;-70
2022/05/26 13:00:30;;;;;;;6.30;1.30;;;18.20;97.10;;;;;;5071725;28;20078;-70
2022/05/26 13:03:04;;;;;;;5.93;1.23;;;18.00;97.20;;;;;;5071692;28;20049;-70
2022/05/26 13:05:33;;;;;;;3.95;1.27;;;18.30;97.40;;;;;;5072954;28;20490;-70
2022/05/26 13:07:59;;;;;;;5.97;1.10;;;18.70;98.10;;;;;;5073042;28;20123;-70
2022/05/26 13:10:37;;;;;;;7.70;1.60;;;18.90;97.90;;;;;;5072278;28;20029;-70
2022/05/26 13:13:17;;;;;;;8.30;1.67;;;18.80;97.20;;;;;;5067409;28;20047;-70
2022/05/26 13:15:45;;;;;;;9.32;1.40;;;18.50;97.30;;;;;;5074723;28;20071;-70
2022/05/26 13:18:23;;;;;;;6.43;1.17;;;18.30;96.80;;;;;;5072347;28;20052;-70
2022/05/26 13:20:49;;;;;;;7.13;1.70;;;18.40;97.20;;;;;;5073802;28;20044;-69
2022/05/26 13:23:30;;;;;;;4.97;1.40;;;18.50;97.40;;;;;;5073091;28;20513;-68
2022/05/26 13:25:57;;;;;;;5.65;1.23;;;18.30;97.00;;;;;;5073971;28;20176;-68
2022/05/26 13:28:28;;;;;;;6.03;1.40;;;18.20;97.50;;;;;;5074003;28;20032;-69
2022/05/26 13:33:49;;;;;;;5.95;1.40;;;18.10;98.20;;;;;;5073663;28;20040;-69
2022/05/26 13:36:37;;;;;;;4.63;1.42;;;18.00;98.40;;;;;;5072452;28;20041;-69
2022/05/26 13:39:16;;;;;;;5.65;1.27;;;18.20;99.80;;;;;;5073115;28;20032;-70
2022/05/26 13:41:45;;;;;;;5.75;1.48;;;18.00;98.60;;;;;;5071773;28;20125;-70
2022/05/26 13:44:51;;;;;;;10.48;1.90;;;18.00;97.90;;;;;;5065819;28;20044;-69
2022/05/26 13:47:17;;;;;;;6.20;1.55;;;18.00;97.80;;;;;;5065334;28;20071;-69